OIBQ

Details ICAO OIBQ
Name KHARK ISLAND
Region Iran
Timezone Asia/Tehran (UTC+3.5)
Plans Departing 4
Arriving 0
Stats Elevation 17 ft / 5 m (AMSL)
Location 29.260251° 50.323822°
Runways 1
Magnetic Variation 3.338° E
Sunrise 2017-12-18 03:28:25 UTC / 2017-12-18 06:58:25 Local
Sunset 2017-12-18 13:44:47 UTC / 2017-12-18 17:14:47 Local
Advertisement - Login to hide

Runways

ID Width Length Bearing (true) Bearing (mag) Surface Threshold Offset Overrun Length
14 148 ft / 45 m 5,927 ft / 1,807 m 134.67° 131.33° Asphalt 0 ft / 0 m 0 ft / 0 m
32 148 ft / 45 m 5,927 ft / 1,807 m 314.68° 311.34° Asphalt 0 ft / 0 m 0 ft / 0 m

Map

Weather


0- 5 10 15 20 25 30 35+ Temperature / ° C

Clouds and Precipitation
Forecast for 2017-12-18 18:00 UTC. Updated an hour ago

Ground ~20,000 ft ~40,000 ft Winds

METAR

OIBQ 181400Z 35014KT CAVOK 20/12 Q1021

TAF

Not found

Frequencies

Tower 129.00 MHz INFO
Tower 122.10 MHz INFO
Warning: Do not use this data for real-world aviation or navigation. No guarantee of current accuracy is given.